Time;durP1;ratioP1;P1;durP2;ratioP2;P2;SDS_P1;SDS_P2;PMS_P1;PMS_P2;Temp;Humidity;BMP_temperature;BMP_pressure;BME280_temperature;BME280_humidity;BME280_pressure;Samples;Min_cycle;Max_cycle;Signal;HPM_P1;HPM_P2
2021/05/22 00:01:25;;;;;;;15.90;2.40;;;;;;;6.89;100.00;99050.75;5148250;27;20395;-80
2021/05/22 00:03:54;;;;;;;4.30;1.27;;;;;;;6.77;100.00;99038.22;5147119;27;20031;-80
2021/05/22 00:06:40;;;;;;;7.07;1.65;;;;;;;6.84;100.00;99044.91;5148288;27;20019;-80
2021/05/22 00:09:06;;;;;;;8.60;1.77;;;;;;;6.79;100.00;99036.44;5147885;27;20026;-80
2021/05/22 00:11:35;;;;;;;9.05;1.95;;;;;;;6.85;100.00;99038.88;5147499;27;20384;-80
2021/05/22 00:14:10;;;;;;;5.43;1.48;;;;;;;6.77;100.00;99038.22;5148093;27;20051;-80
2021/05/22 00:16:40;;;;;;;6.32;1.70;;;;;;;6.78;100.00;99032.19;5147411;27;20071;-80
2021/05/22 00:19:13;;;;;;;7.60;1.70;;;;;;;6.74;100.00;99028.84;5149232;27;20432;-80
2021/05/22 00:22:05;;;;;;;7.78;1.38;;;;;;;6.83;100.00;99027.75;5149185;27;20046;-80
2021/05/22 00:24:39;;;;;;;8.02;1.35;;;;;;;6.84;100.00;99019.97;5143627;27;20118;-80
2021/05/22 00:27:04;;;;;;;7.72;1.50;;;;;;;6.87;100.00;99024.22;5148151;27;20019;-80
2021/05/22 00:29:38;;;;;;;7.32;1.48;;;;;;;6.91;100.00;99020.66;5145334;27;20031;-80
2021/05/22 00:32:04;;;;;;;10.77;1.65;;;;;;;6.93;100.00;99026.63;5147334;27;20062;-80
2021/05/22 00:34:35;;;;;;;7.43;1.92;;;;;;;6.93;100.00;99024.03;5146533;27;20023;-79
2021/05/22 00:37:20;;;;;;;10.57;1.67;;;;;;;6.92;100.00;99024.91;5149259;27;20015;-80
2021/05/22 00:39:46;;;;;;;10.20;1.45;;;;;;;7.16;100.00;99018.22;5147658;27;20080;-80
2021/05/22 00:42:16;;;;;;;8.48;1.88;;;;;;;7.33;100.00;99021.16;5146870;27;20027;-80
2021/05/22 00:45:08;;;;;;;10.05;1.50;;;;;;;7.27;100.00;99023.91;5147405;27;20031;-80
2021/05/22 00:47:38;;;;;;;8.02;1.48;;;;;;;7.23;100.00;99018.88;5146332;27;20050;-80
2021/05/22 00:50:07;;;;;;;8.95;1.70;;;;;;;7.49;98.55;99016.38;5145754;27;20058;-80
2021/05/22 00:52:38;;;;;;;9.70;1.50;;;;;;;7.68;96.33;99015.81;5146696;27;20030;-80
2021/05/22 00:55:07;;;;;;;6.47;1.23;;;;;;;7.64;97.37;99020.22;5146325;27;20031;-80
2021/05/22 00:57:56;;;;;;;4.60;1.15;;;;;;;7.64;96.98;99019.38;5145241;27;20103;-80
2021/05/22 01:01:03;;;;;;;7.22;1.50;;;;;;;7.60;97.31;99013.44;5145449;27;20109;-80
2021/05/22 01:03:37;;;;;;;13.50;1.67;;;;;;;7.64;96.60;99021.97;5146459;27;20019;-80
2021/05/22 01:06:18;;;;;;;7.63;1.63;;;;;;;7.55;97.98;99018.75;5144368;27;20019;-80
2021/05/22 01:08:52;;;;;;;6.68;1.40;;;;;;;7.49;98.44;99011.22;5144060;27;20473;-80
2021/05/22 01:11:24;;;;;;;10.13;1.63;;;;;;;7.51;97.18;99014.59;5144883;27;20535;-80
2021/05/22 01:13:59;;;;;;;8.95;1.55;;;;;;;7.54;96.09;99016.22;5148470;27;20019;-80
2021/05/22 01:16:25;;;;;;;9.77;1.73;;;;;;;7.50;96.06;99020.63;5146738;27;20015;-80
2021/05/22 01:18:53;;;;;;;8.63;1.52;;;;;;;7.49;94.21;99006.06;5144595;27;20108;-80
2021/05/22 01:21:22;;;;;;;6.72;1.27;;;;;;;7.61;92.09;99008.25;5145050;27;20015;-80
2021/05/22 01:23:58;;;;;;;5.90;1.20;;;;;;;7.56;91.56;99010.13;5146377;27;20023;-80
2021/05/22 01:26:25;;;;;;;10.10;1.58;;;;;;;7.52;91.39;99003.38;5162616;27;20046;-80
2021/05/22 01:28:51;;;;;;;6.20;1.27;;;;;;;7.54;90.42;99001.59;5144813;27;20019;-80
2021/05/22 01:31:17;;;;;;;8.23;1.70;;;;;;;7.52;90.67;98993.06;5164048;27;20108;-80
2021/05/22 01:33:43;;;;;;;7.95;1.30;;;;;;;7.39;92.98;98991.75;5162683;27;20033;-80
2021/05/22 01:36:14;;;;;;;11.20;1.38;;;;;;;7.51;90.57;98991.38;5142906;27;20023;-80
2021/05/22 01:38:52;;;;;;;5.72;1.33;;;;;;;7.56;89.45;98989.47;5145043;27;20475;-80
2021/05/22 01:41:18;;;;;;;11.30;1.27;;;;;;;7.61;89.21;99004.84;5146563;27;20019;-80
2021/05/22 01:43:48;;;;;;;11.27;1.63;;;;;;;7.63;88.62;98981.53;5144400;27;20057;-80
2021/05/22 01:46:23;;;;;;;7.88;1.40;;;;;;;7.56;89.85;98989.47;5161990;27;20027;-80
2021/05/22 01:48:50;;;;;;;9.63;1.52;;;;;;;7.53;89.84;98992.16;5145620;27;20019;-80
2021/05/22 01:51:20;;;;;;;5.38;1.33;;;;;;;7.51;90.27;98988.81;5146476;27;20034;-80
2021/05/22 01:53:47;;;;;;;8.40;1.35;;;;;;;7.65;89.25;98984.94;5143217;27;20474;-80
2021/05/22 01:56:14;;;;;;;4.88;1.05;;;;;;;7.43;91.13;98988.19;5143961;27;20023;-79
2021/05/22 01:58:47;;;;;;;6.72;1.30;;;;;;;7.50;91.54;98987.09;5141610;27;20118;-80
2021/05/22 02:01:12;;;;;;;10.75;1.58;;;;;;;7.59;90.31;98986.81;5141739;27;20027;-80
2021/05/22 02:03:48;;;;;;;8.43;1.25;;;;;;;7.54;91.35;98982.66;5142863;27;20117;-80
2021/05/22 02:06:26;;;;;;;8.98;1.65;;;;;;;7.55;91.62;98994.69;5143499;27;20443;-79
2021/05/22 02:09:00;;;;;;;9.85;1.40;;;;;;;7.50;92.08;98987.09;5160627;27;20110;-80
2021/05/22 02:11:29;;;;;;;6.47;1.27;;;;;;;7.23;94.87;98987.94;5143151;27;20028;-80
2021/05/22 02:13:58;;;;;;;7.80;1.45;;;;;;;7.04;97.02;98988.47;5143997;27;20038;-80
2021/05/22 02:16:27;;;;;;;8.68;1.65;;;;;;;7.07;96.25;98990.97;5160994;27;20023;-80
2021/05/22 02:18:58;;;;;;;8.45;1.60;;;;;;;6.94;96.97;98996.53;5162091;27;20030;-80
2021/05/22 02:21:28;;;;;;;16.20;1.77;;;;;;;6.91;97.49;98987.16;5145019;27;20031;-80
2021/05/22 02:24:03;;;;;;;12.10;1.60;;;;;;;7.04;96.32;98991.03;5142784;28;20444;-80
2021/05/22 02:26:28;;;;;;;;;;;;;;;7.04;96.85;98985.91;5143664;27;20471;-79
2021/05/22 02:29:02;;;;;;;8.80;1.90;;;;;;;7.03;96.83;98988.53;5142842;28;19908;-80
2021/05/22 02:31:35;;;;;;;5.85;1.40;;;;;;;6.94;97.89;98986.22;5144864;27;20264;-80
2021/05/22 02:34:10;;;;;;;6.72;2.13;;;;;;;7.09;97.27;98981.47;5142014;28;20478;-80
2021/05/22 02:36:39;;;;;;;10.05;1.42;;;;;;;6.91;98.51;98987.16;5160297;27;20026;-80
2021/05/22 02:39:12;;;;;;;9.52;1.58;;;;;;;7.00;98.43;98980.88;5143751;27;20023;-80
2021/05/22 02:41:38;;;;;;;10.95;1.63;;;;;;;6.82;99.63;98972.78;5141613;28;20379;-80
2021/05/22 02:44:11;;;;;;;5.32;1.35;;;;;;;6.98;98.47;98975.75;5142323;27;20114;-80
2021/05/22 02:46:41;;;;;;;5.85;1.23;;;;;;;6.79;100.00;98978.03;5142591;28;20015;-80
2021/05/22 02:49:20;;;;;;;7.97;1.48;;;;;;;6.66;100.00;98969.81;5142476;28;20023;-80
2021/05/22 02:51:55;;;;;;;10.20;1.67;;;;;;;6.75;100.00;98960.97;5145078;27;20023;-80
2021/05/22 02:54:23;;;;;;;8.43;1.23;;;;;;;6.69;100.00;98961.16;5145124;27;20096;-80
2021/05/22 02:56:49;;;;;;;7.40;1.15;;;;;;;6.64;100.00;98963.84;5145598;27;20064;-79
2021/05/22 02:59:21;;;;;;;9.27;1.70;;;;;;;6.52;100.00;98974.47;5143897;28;20027;-80
2021/05/22 03:01:49;;;;;;;7.50;1.60;;;;;;;6.54;100.00;98966.72;5161668;27;20035;-80
2021/05/22 03:04:15;;;;;;;8.25;1.60;;;;;;;6.52;100.00;98959.03;5146311;27;20035;-80
2021/05/22 03:06:48;;;;;;;8.65;1.30;;;;;;;6.47;100.00;98955.75;5145460;27;20075;-80
2021/05/22 03:09:16;;;;;;;6.80;1.30;;;;;;;6.48;100.00;98954.00;5164872;27;20034;-80
2021/05/22 03:11:41;;;;;;;7.65;1.40;;;;;;;6.36;100.00;98957.75;5146481;27;20423;-80
2021/05/22 03:14:07;;;;;;;8.75;1.63;;;;;;;6.45;100.00;98948.06;5147876;27;20019;-80
2021/05/22 03:16:32;;;;;;;9.30;1.45;;;;;;;6.42;100.00;98948.13;5164036;27;20023;-80
2021/05/22 03:18:58;;;;;;;8.95;1.45;;;;;;;6.35;100.00;98946.63;5148480;27;20043;-80
2021/05/22 03:21:23;;;;;;;12.80;1.63;;;;;;;6.36;100.00;98955.19;5149346;27;20019;-80
2021/05/22 03:23:49;;;;;;;6.80;1.20;;;;;;;6.41;100.00;98945.63;5149331;27;20103;-80
2021/05/22 03:26:14;;;;;;;8.15;1.30;;;;;;;6.40;100.00;98947.34;5166294;27;20475;-80
2021/05/22 03:28:39;;;;;;;7.22;1.50;;;;;;;6.42;100.00;98948.13;5168437;27;20019;-80
2021/05/22 03:31:26;;;;;;;8.68;1.92;;;;;;;6.27;100.00;98939.97;5149452;27;20100;-80
2021/05/22 03:33:54;;;;;;;13.80;1.50;;;;;;;6.21;100.00;98943.56;5151219;27;20023;-80
2021/05/22 03:36:20;;;;;;;6.85;1.60;;;;;;;6.13;100.00;98946.34;5147916;27;20410;-80
2021/05/22 03:38:56;;;;;;;6.35;1.30;;;;;;;6.25;100.00;98949.47;5150293;27;20053;-80
2021/05/22 03:41:24;;;;;;;5.18;1.20;;;;;;;6.23;100.00;98945.22;5148718;27;20031;-80
2021/05/22 03:43:49;;;;;;;9.93;1.85;;;;;;;6.25;100.00;98944.31;5149778;27;20030;-80
2021/05/22 03:46:14;;;;;;;6.18;1.25;;;;;;;6.35;100.00;98940.63;5150389;27;20466;-80
2021/05/22 03:48:56;;;;;;;5.65;1.17;;;;;;;6.42;100.00;98937.84;5149627;27;20023;-80
2021/05/22 03:51:21;;;;;;;9.50;1.70;;;;;;;6.37;100.00;98944.84;5149881;27;20033;-80
2021/05/22 03:53:47;;;;;;;5.22;1.13;;;;;;;6.51;100.00;98941.91;5147013;27;20031;-80
2021/05/22 03:56:12;;;;;;;6.35;1.15;;;;;;;6.62;100.00;98941.56;5145690;27;20463;-80
2021/05/22 03:58:37;;;;;;;6.05;1.23;;;;;;;6.54;100.00;98936.66;5147667;27;20042;-80
2021/05/22 04:04:24;;;;;;;11.32;1.20;;;;;;;6.83;100.00;98946.13;5147409;27;20571;-80
2021/05/22 04:06:50;;;;;;;4.55;0.93;;;;;;;6.84;100.00;98944.41;5167121;27;20023;-80
2021/05/22 04:09:15;;;;;;;4.53;1.10;;;;;;;7.00;100.00;98944.81;5167281;27;20023;-80
2021/05/22 04:11:40;;;;;;;9.18;1.13;;;;;;;6.92;100.00;98927.81;5164632;27;20031;-80
2021/05/22 04:14:06;;;;;;;7.05;1.60;;;;;;;7.03;99.53;98927.50;5149196;27;20082;-80
2021/05/22 04:16:31;;;;;;;7.30;1.45;;;;;;;7.04;99.41;98929.19;5148335;27;20120;-80
2021/05/22 04:18:57;;;;;;;5.65;1.20;;;;;;;7.17;98.43;98934.81;5146777;27;20031;-80
2021/05/22 04:21:23;;;;;;;4.95;1.13;;;;;;;7.20;97.97;98932.13;5148385;27;20410;-80
2021/05/22 04:23:48;;;;;;;6.63;1.27;;;;;;;7.19;98.37;98938.19;5149325;27;20058;-80
2021/05/22 04:26:13;;;;;;;7.10;1.10;;;;;;;7.30;97.19;98932.72;5165443;27;20023;-80
2021/05/22 04:28:38;;;;;;;5.28;1.08;;;;;;;7.31;97.75;98934.41;5145751;27;20365;-80
2021/05/22 04:31:04;;;;;;;5.88;1.08;;;;;;;7.43;96.38;98928.84;5148543;27;20030;-80
2021/05/22 04:33:29;;;;;;;5.80;1.33;;;;;;;7.63;94.79;98937.69;5147368;27;20108;-80
2021/05/22 04:35:55;;;;;;;8.55;1.55;;;;;;;7.76;93.25;98926.09;5152041;22;20032;-79
2021/05/22 04:38:20;;;;;;;6.90;1.40;;;;;;;7.81;92.89;98931.91;5095015;28;20097;-77
2021/05/22 04:40:45;;;;;;;7.32;1.13;;;;;;;7.83;94.06;98932.72;5093659;28;20024;-78
2021/05/22 04:43:11;;;;;;;5.22;1.10;;;;;;;7.91;92.79;98924.72;5093677;28;20023;-77
2021/05/22 04:46:20;;;;;;;6.00;0.93;;;;;;;7.89;92.84;98924.78;5093421;28;20024;-77
2021/05/22 04:48:45;;;;;;;12.40;1.63;;;;;;;8.03;91.24;98925.13;5093365;28;20035;-77
2021/05/22 04:51:12;;;;;;;7.65;1.23;;;;;;;8.08;91.67;98925.81;5093465;28;20024;-77
2021/05/22 04:53:37;;;;;;;8.07;1.23;;;;;;;8.19;90.33;98928.06;5093516;28;20016;-78
2021/05/22 04:56:03;;;;;;;6.32;1.08;;;;;;;8.33;90.00;98924.13;5094516;28;20361;-77
2021/05/22 04:58:29;;;;;;;4.47;0.85;;;;;;;8.78;85.87;98926.84;5093471;28;20096;-77
2021/05/22 05:00:54;;;;;;;4.68;0.95;;;;;;;9.12;84.44;98925.56;5093189;28;20032;-78
2021/05/22 05:03:19;;;;;;;6.30;1.08;;;;;;;9.47;83.29;98928.50;5093112;28;20035;-78
2021/05/22 05:05:45;;;;;;;5.78;0.90;;;;;;;9.84;81.20;98927.84;5093157;28;20047;-77
2021/05/22 05:08:18;;;;;;;5.28;0.98;;;;;;;10.16;78.91;98929.09;5094727;28;20031;-77
2021/05/22 05:10:43;;;;;;;6.38;0.88;;;;;;;10.58;76.28;98922.97;5094902;28;20027;-77
2021/05/22 05:13:08;;;;;;;6.35;1.05;;;;;;;11.03;74.53;98919.19;5093401;28;20085;-77
2021/05/22 05:15:34;;;;;;;6.85;1.23;;;;;;;11.37;73.40;98920.22;5094172;28;20542;-78
2021/05/22 05:17:59;;;;;;;4.13;1.00;;;;;;;11.54;70.94;98915.03;5094351;28;20032;-78
2021/05/22 05:20:24;;;;;;;8.75;1.10;;;;;;;11.90;71.36;98932.38;5094205;28;20024;-79
2021/05/22 05:22:51;;;;;;;5.55;1.10;;;;;;;12.07;69.43;98924.56;5093909;28;20071;-78
2021/05/22 05:25:16;;;;;;;6.95;0.90;;;;;;;11.04;73.56;98929.50;5094001;28;20464;-78
2021/05/22 05:27:41;;;;;;;5.38;1.20;;;;;;;10.78;74.37;98935.88;5092708;28;20044;-78
2021/05/22 05:30:07;;;;;;;7.30;1.13;;;;;;;10.39;75.65;98940.25;5093982;28;20032;-78
2021/05/22 05:32:33;;;;;;;7.85;1.30;;;;;;;10.36;75.54;98926.50;5092808;28;20023;-78
2021/05/22 05:34:58;;;;;;;5.82;1.20;;;;;;;10.85;73.64;98927.84;5094038;28;20027;-78
2021/05/22 05:37:23;;;;;;;7.10;1.02;;;;;;;11.39;73.18;98919.22;5092698;28;20020;-79
2021/05/22 05:39:48;;;;;;;8.15;1.20;;;;;;;11.80;69.74;98915.53;5094198;28;20032;-78
2021/05/22 05:42:14;;;;;;;5.30;1.30;;;;;;;12.35;67.33;98921.41;5092766;28;20064;-78
2021/05/22 05:44:39;;;;;;;6.47;1.10;;;;;;;12.14;66.76;98928.53;5092781;28;20027;-78
2021/05/22 05:47:04;;;;;;;5.13;0.75;;;;;;;12.13;66.40;98924.25;5092657;28;20031;-79
2021/05/22 05:49:29;;;;;;;5.10;1.00;;;;;;;12.16;67.81;98931.91;5093837;28;20024;-78
2021/05/22 05:51:59;;;;;;;7.25;1.25;;;;;;;12.85;64.70;98911.84;5094122;28;20460;-80
2021/05/22 05:54:27;;;;;;;8.10;1.02;;;;;;;12.19;66.88;98908.34;5094038;28;20388;-79
2021/05/22 05:56:53;;;;;;;6.30;1.13;;;;;;;12.31;65.47;98912.06;5094120;28;20022;-79
2021/05/22 05:59:18;;;;;;;9.27;1.33;;;;;;;12.60;65.12;98930.53;5093142;28;20373;-80
2021/05/22 06:01:44;;;;;;;5.13;0.85;;;;;;;12.44;66.63;98920.09;5092712;28;20027;-79
2021/05/22 06:04:09;;;;;;;8.07;1.42;;;;;;;11.65;67.90;98930.94;5094061;28;20030;-78
2021/05/22 06:06:34;;;;;;;6.63;1.38;;;;;;;11.58;67.96;98934.75;5092273;28;20111;-77
2021/05/22 06:09:00;;;;;;;6.97;1.83;;;;;;;10.79;70.92;98932.38;5093570;28;20020;-78
2021/05/22 06:11:29;;;;;;;7.28;1.23;;;;;;;12.49;66.50;98927.63;5093611;28;20095;-78
2021/05/22 06:13:54;;;;;;;8.38;1.10;;;;;;;11.88;68.25;98926.38;5092328;28;20028;-78
2021/05/22 06:16:32;;;;;;;7.50;1.38;;;;;;;11.74;68.95;98922.69;5092299;28;20411;-78
2021/05/22 06:18:58;;;;;;;5.72;1.05;;;;;;;11.75;68.33;98932.16;5093563;28;20104;-78
2021/05/22 06:21:23;;;;;;;5.63;0.98;;;;;;;12.02;68.43;98926.56;5093431;28;20051;-79
2021/05/22 06:23:49;;;;;;;5.60;1.23;;;;;;;11.71;68.09;98925.44;5093745;28;20028;-79
2021/05/22 06:26:14;;;;;;;8.50;1.10;;;;;;;11.51;70.17;98931.63;5092164;28;20019;-78
2021/05/22 06:28:40;;;;;;;6.20;1.17;;;;;;;11.59;70.90;98930.41;5094032;28;20020;-79
2021/05/22 06:31:05;;;;;;;7.40;1.42;;;;;;;11.20;70.42;98927.03;5093605;28;20400;-79
2021/05/22 06:33:31;;;;;;;8.00;1.67;;;;;;;11.12;72.17;98929.16;5093659;28;20039;-78
2021/05/22 06:35:56;;;;;;;7.43;0.90;;;;;;;10.99;73.44;98935.81;5093993;28;20479;-79
2021/05/22 06:38:22;;;;;;;8.23;1.55;;;;;;;10.79;71.99;98936.72;5097957;28;20059;-79
2021/05/22 06:40:47;;;;;;;7.97;1.30;;;;;;;10.89;72.25;98926.78;5097792;28;20035;-79
2021/05/22 06:43:13;;;;;;;6.50;0.80;;;;;;;10.87;73.21;98928.59;5096494;28;20030;-79
2021/05/22 06:45:40;;;;;;;9.48;2.00;;;;;;;11.09;73.04;98931.88;5096307;28;20061;-79
2021/05/22 06:48:07;;;;;;;10.18;1.42;;;;;;;10.99;73.96;98931.47;5097620;28;20028;-79
2021/05/22 06:50:34;;;;;;;3.25;0.82;;;;;;;11.02;72.88;98938.25;5096309;28;20487;-79
2021/05/22 06:52:59;;;;;;;4.07;1.00;;;;;;;10.72;72.98;98920.59;5097618;28;20098;-79
2021/05/22 06:55:24;;;;;;;6.47;1.13;;;;;;;11.12;72.78;98923.97;5095999;28;20051;-79
2021/05/22 06:57:50;;;;;;;8.35;1.20;;;;;;;11.52;71.03;98932.47;5096223;28;20020;-79
2021/05/22 07:00:16;;;;;;;7.82;1.17;;;;;;;11.82;69.37;98934.47;5096300;28;20028;-79
2021/05/22 07:02:41;;;;;;;6.85;1.15;;;;;;;12.11;70.10;98939.09;5097437;28;20377;-79
2021/05/22 07:05:06;;;;;;;4.18;1.23;;;;;;;11.53;70.05;98934.97;5097919;28;20028;-80
2021/05/22 07:07:32;;;;;;;10.65;1.60;;;;;;;11.42;72.72;98928.59;5097361;28;20026;-79
2021/05/22 07:09:57;;;;;;;6.35;1.17;;;;;;;11.07;70.73;98913.78;5096782;28;20050;-78
2021/05/22 07:12:23;;;;;;;5.35;1.25;;;;;;;11.41;71.22;98932.13;5097783;28;20028;-80
2021/05/22 07:14:48;;;;;;;9.77;1.35;;;;;;;11.42;70.73;98915.63;5098013;28;20039;-80
2021/05/22 07:17:13;;;;;;;7.10;1.02;;;;;;;11.57;71.11;98917.47;5097440;28;20027;-80
2021/05/22 07:19:38;;;;;;;4.32;1.20;;;;;;;11.58;71.31;98928.72;5097333;28;20430;-79
2021/05/22 07:22:04;;;;;;;5.50;1.20;;;;;;;11.44;70.98;98935.41;5096288;28;20038;-78
2021/05/22 07:24:29;;;;;;;11.13;1.10;;;;;;;11.39;71.97;98934.81;5095777;28;20369;-80
2021/05/22 07:26:56;;;;;;;6.72;1.00;;;;;;;11.28;71.86;98927.50;5096232;28;20127;-79
2021/05/22 07:29:22;;;;;;;6.20;1.50;;;;;;;12.10;69.10;98929.63;5095811;28;20085;-79
2021/05/22 07:31:47;;;;;;;5.00;0.70;;;;;;;12.31;68.02;98925.06;5097052;28;20031;-79
2021/05/22 07:34:12;;;;;;;5.03;0.88;;;;;;;13.65;64.35;98923.06;5096861;28;20028;-79
2021/05/22 07:36:40;;;;;;;6.82;1.05;;;;;;;13.81;62.04;98924.69;5097054;28;20028;-79
2021/05/22 07:39:09;;;;;;;6.38;1.00;;;;;;;13.74;62.30;98915.56;5099284;28;20032;-78
2021/05/22 07:41:36;;;;;;;5.10;0.90;;;;;;;12.54;65.43;98920.44;5111784;28;20024;-78
2021/05/22 07:44:01;;;;;;;6.15;1.27;;;;;;;12.63;66.17;98940.75;5100881;28;20035;-79
2021/05/22 07:46:26;;;;;;;5.22;0.90;;;;;;;12.73;64.95;98930.72;5096154;28;20020;-79
2021/05/22 07:48:52;;;;;;;6.10;0.98;;;;;;;12.13;66.39;98923.41;5095308;28;20098;-79
2021/05/22 07:51:18;;;;;;;7.07;1.20;;;;;;;11.89;68.99;98922.91;5096213;28;20030;-79
2021/05/22 07:53:43;;;;;;;8.10;1.08;;;;;;;12.45;66.64;98926.94;5095009;28;20024;-79
2021/05/22 07:56:08;;;;;;;5.13;0.90;;;;;;;12.20;67.69;98930.81;5095188;28;20069;-79
2021/05/22 07:58:34;;;;;;;5.38;0.90;;;;;;;12.32;69.70;98926.75;5095067;28;20502;-79
2021/05/22 08:00:59;;;;;;;3.63;0.98;;;;;;;12.00;69.06;98935.34;5094874;28;20035;-79
2021/05/22 08:03:24;;;;;;;7.07;0.90;;;;;;;12.14;70.09;98935.50;5096288;28;20030;-79
2021/05/22 08:05:49;;;;;;;5.95;1.10;;;;;;;11.95;68.06;98920.81;5094878;28;20020;-79
2021/05/22 08:08:15;;;;;;;3.35;0.80;;;;;;;11.59;70.09;98928.63;5095034;28;20024;-79
2021/05/22 08:10:40;;;;;;;5.85;1.10;;;;;;;11.36;71.64;98926.28;5094821;28;20034;-79
2021/05/22 08:13:06;;;;;;;6.25;1.08;;;;;;;11.35;72.37;98929.81;5094887;28;20024;-79
2021/05/22 08:15:31;;;;;;;6.78;1.20;;;;;;;11.22;72.25;98935.59;5094967;28;20135;-79
2021/05/22 08:21:22;;;;;;;4.45;1.15;;;;;;;11.49;72.16;98943.00;5096703;28;20585;-78
2021/05/22 08:23:48;;;;;;;5.63;1.20;;;;;;;11.45;73.15;98934.50;5094397;28;20035;-78
2021/05/22 08:26:13;;;;;;;7.00;1.00;;;;;;;11.40;73.10;98941.66;5095523;28;20020;-79
2021/05/22 08:28:38;;;;;;;6.55;0.93;;;;;;;11.55;76.14;98936.66;5094508;28;20073;-79
2021/05/22 08:31:03;;;;;;;7.93;1.25;;;;;;;11.27;75.89;98936.22;5094206;28;20066;-78
2021/05/22 08:33:29;;;;;;;4.65;0.90;;;;;;;11.00;74.57;98932.31;5095281;28;20020;-78
2021/05/22 08:35:54;;;;;;;6.18;1.17;;;;;;;10.97;76.88;98948.03;5095195;28;20031;-78
2021/05/22 08:38:19;;;;;;;4.30;1.05;;;;;;;10.99;77.86;98943.59;5093995;28;20107;-78
2021/05/22 08:40:45;;;;;;;6.72;1.42;;;;;;;11.09;78.75;98946.63;5093992;28;20516;-78
2021/05/22 08:43:10;;;;;;;8.32;1.52;;;;;;;11.03;82.63;98947.75;5094940;28;20020;-78
2021/05/22 08:45:35;;;;;;;6.75;1.52;;;;;;;10.86;81.28;98950.25;5093751;28;20502;-78
2021/05/22 08:48:01;;;;;;;6.85;1.10;;;;;;;10.90;84.22;98951.78;5093645;28;20056;-78
2021/05/22 08:50:26;;;;;;;5.28;1.02;;;;;;;10.85;83.07;98952.00;5093778;28;20137;-78
2021/05/22 08:52:54;;;;;;;5.72;1.27;;;;;;;10.72;86.48;98951.72;5094870;28;20062;-78
2021/05/22 08:55:21;;;;;;;7.22;1.05;;;;;;;10.74;84.92;98951.63;5093279;28;20037;-78
2021/05/22 08:57:47;;;;;;;8.30;1.25;;;;;;;10.55;85.71;98952.44;5092746;28;20095;-77
2021/05/22 09:00:16;;;;;;;9.23;1.73;;;;;;;10.43;86.77;98970.28;5093387;28;20026;-78
2021/05/22 09:02:43;;;;;;;5.38;1.30;;;;;;;10.32;87.33;98961.25;5095018;28;20369;-80
2021/05/22 09:05:18;;;;;;;7.80;1.88;;;;;;;10.31;88.34;98971.66;5094873;28;20028;-79
2021/05/22 09:07:49;;;;;;;11.07;2.20;;;;;;;10.07;89.31;98987.31;5094271;28;20027;-79
2021/05/22 09:10:19;;;;;;;3.65;0.93;;;;;;;10.14;93.03;98977.53;5093648;28;20381;-78
2021/05/22 09:12:47;;;;;;;6.00;0.80;;;;;;;10.08;91.78;98977.78;5093620;28;20024;-78
2021/05/22 09:15:21;;;;;;;8.80;1.50;;;;;;;10.06;92.84;98983.03;5094662;28;20019;-78
2021/05/22 09:25:04;;;;;;;6.63;1.38;;;;;;;10.07;94.35;98989.06;5094752;28;20078;-78
2021/05/22 09:27:33;;;;;;;6.75;1.17;;;;;;;10.07;93.96;98978.72;5092778;28;20043;-78
2021/05/22 09:30:19;;;;;;;5.38;1.40;;;;;;;10.00;95.35;98972.06;5092995;28;20081;-78
2021/05/22 09:32:45;;;;;;;14.85;1.40;;;;;;;9.96;95.93;98978.28;5092427;28;20040;-78
2021/05/22 09:35:12;;;;;;;5.10;1.10;;;;;;;10.17;96.44;98971.38;5092732;28;20042;-78
2021/05/22 09:37:55;;;;;;;7.55;1.10;;;;;;;10.34;93.71;98968.94;5093784;28;20020;-78
2021/05/22 09:40:27;;;;;;;6.70;1.17;;;;;;;10.41;92.29;98970.38;5092694;28;20042;-78
2021/05/22 09:42:54;;;;;;;6.80;1.30;;;;;;;10.40;92.18;98973.84;5092671;28;20028;-78
2021/05/22 09:45:33;;;;;;;5.05;1.10;;;;;;;10.69;94.85;98970.00;5093685;28;20030;-77
2021/05/22 09:48:13;;;;;;;5.50;1.10;;;;;;;10.87;92.27;98964.91;5093725;28;20038;-78
2021/05/22 09:50:42;;;;;;;8.50;1.10;;;;;;;10.90;93.58;98972.53;5092410;28;20078;-78
2021/05/22 09:53:28;;;;;;;5.93;1.05;;;;;;;10.94;92.98;98961.97;5092378;28;20438;-78
2021/05/22 09:56:19;;;;;;;7.75;1.08;;;;;;;10.85;92.58;98969.31;5092286;28;20084;-77
2021/05/22 09:58:55;;;;;;;6.93;1.02;;;;;;;10.90;92.57;98973.41;5093475;28;20024;-77
2021/05/22 10:01:32;;;;;;;5.32;0.95;;;;;;;10.59;91.65;98976.50;5092336;28;20174;-77
2021/05/22 10:04:17;;;;;;;5.45;1.00;;;;;;;10.93;90.18;98964.63;5092263;28;20027;-77
2021/05/22 10:06:43;;;;;;;3.78;0.82;;;;;;;11.29;91.58;98960.34;5092083;28;20047;-77
2021/05/22 10:09:14;;;;;;;3.70;0.90;;;;;;;10.66;91.77;98971.91;5092320;28;20484;-77
2021/05/22 10:12:04;;;;;;;5.95;1.02;;;;;;;10.53;91.48;98951.69;5091771;28;20110;-77
2021/05/22 10:14:34;;;;;;;5.00;0.98;;;;;;;10.46;94.86;98978.78;5093574;28;20040;-78
2021/05/22 10:17:02;;;;;;;11.40;2.63;;;;;;;10.21;93.69;98965.16;5093460;28;20020;-77
2021/05/22 10:19:29;;;;;;;3.10;0.93;;;;;;;10.23;94.91;98974.56;5092000;28;20504;-77
2021/05/22 10:21:55;;;;;;;7.22;1.40;;;;;;;10.26;95.44;98971.88;5093266;28;20396;-77
2021/05/22 10:24:20;;;;;;;4.50;1.00;;;;;;;10.50;97.49;98964.78;5093235;28;20024;-78
2021/05/22 10:26:47;;;;;;;4.68;0.93;;;;;;;10.27;95.16;98988.25;5091748;28;20101;-77
2021/05/22 10:29:12;;;;;;;5.57;1.00;;;;;;;10.33;99.26;98975.88;5093126;28;20035;-77
2021/05/22 10:31:41;;;;;;;5.13;1.13;;;;;;;10.05;98.26;98983.09;5091881;28;20024;-77
2021/05/22 10:34:15;;;;;;;10.45;1.33;;;;;;;10.29;100.00;98987.28;5093105;28;20024;-77
2021/05/22 10:36:54;;;;;;;4.85;0.98;;;;;;;10.12;98.39;98954.25;5091448;28;20020;-78
2021/05/22 10:39:39;;;;;;;4.72;1.10;;;;;;;10.40;100.00;98988.56;5093348;28;20106;-79
2021/05/22 10:42:08;;;;;;;4.18;0.90;;;;;;;10.13;97.84;98981.88;5146182;23;20044;-83
2021/05/22 10:44:37;;;;;;;5.00;1.10;;;;;;;10.18;100.00;98997.22;5143299;28;20023;-81
2021/05/22 10:47:12;;;;;;;8.57;1.40;;;;;;;10.40;100.00;98993.75;5143220;28;20022;-81
2021/05/22 10:49:55;;;;;;;5.13;1.00;;;;;;;9.88;100.00;98995.00;5141960;28;20096;-80
2021/05/22 10:52:31;;;;;;;5.35;0.98;;;;;;;10.07;99.81;98994.25;5142733;28;20498;-81
2021/05/22 10:55:03;;;;;;;7.35;1.10;;;;;;;10.11;100.00;98999.22;5142539;28;20019;-80
2021/05/22 10:57:29;;;;;;;3.95;1.23;;;;;;;9.87;100.00;98992.47;5140767;27;20098;-80
2021/05/22 11:00:13;;;;;;;5.63;1.55;;;;;;;10.05;100.00;99003.81;5140252;27;20034;-80
2021/05/22 11:02:40;;;;;;;5.28;0.95;;;;;;;10.02;100.00;99006.53;5138006;28;20468;-79
2021/05/22 11:05:21;;;;;;;2.75;0.80;;;;;;;9.96;100.00;99001.59;5139294;28;20019;-79
2021/05/22 11:07:47;;;;;;;6.32;1.23;;;;;;;10.06;100.00;99006.34;5138882;28;20020;-80
2021/05/22 11:10:39;;;;;;;7.88;1.67;;;;;;;9.84;100.00;99008.13;5157624;27;20114;-80
2021/05/22 11:13:05;;;;;;;4.20;0.90;;;;;;;9.71;100.00;99005.19;5141963;28;20019;-80
2021/05/22 11:15:41;;;;;;;8.63;1.23;;;;;;;9.88;100.00;99013.13;5141481;28;20022;-80
2021/05/22 11:18:08;;;;;;;2.85;0.90;;;;;;;9.87;100.00;98995.03;5141138;28;20055;-80
2021/05/22 11:20:34;;;;;;;4.78;1.20;;;;;;;9.97;99.84;99005.88;5140061;27;20016;-81
2021/05/22 11:23:02;;;;;;;4.57;1.50;;;;;;;10.21;100.00;98997.09;5143768;27;20115;-81
2021/05/22 11:25:53;;;;;;;7.75;1.20;;;;;;;10.15;100.00;99010.28;5144427;27;20085;-81
2021/05/22 11:28:21;;;;;;;4.35;1.10;;;;;;;9.89;100.00;99017.41;5162517;27;20118;-81
2021/05/22 11:30:49;;;;;;;3.97;0.80;;;;;;;9.66;100.00;99012.28;5143798;27;20030;-81
2021/05/22 11:33:20;;;;;;;5.78;1.50;;;;;;;9.83;100.00;99019.38;5144831;27;20026;-81
2021/05/22 11:35:51;;;;;;;8.15;1.30;;;;;;;9.79;100.00;99012.63;5144795;27;20101;-81
2021/05/22 11:38:23;;;;;;;5.03;1.30;;;;;;;9.64;100.00;99020.13;5143675;27;20023;-81
2021/05/22 11:40:49;;;;;;;5.70;1.00;;;;;;;9.57;100.00;99018.66;5142766;27;20023;-81
2021/05/22 11:43:15;;;;;;;6.80;1.40;;;;;;;9.66;100.00;99020.03;5144434;27;20122;-81
2021/05/22 11:45:41;;;;;;;7.78;1.35;;;;;;;9.64;100.00;99027.88;5144924;27;20047;-81
2021/05/22 11:48:27;;;;;;;4.78;1.15;;;;;;;9.89;100.00;99027.75;5142471;27;20034;-81
2021/05/22 11:50:56;;;;;;;8.50;1.58;;;;;;;10.08;100.00;99035.63;5144864;27;20427;-82
2021/05/22 11:53:21;;;;;;;4.35;0.93;;;;;;;10.05;98.91;99029.72;5142278;27;20110;-81
2021/05/22 11:56:01;;;;;;;5.63;1.30;;;;;;;10.19;99.46;99026.56;5142318;27;20490;-80
2021/05/22 11:58:28;;;;;;;4.50;1.10;;;;;;;10.29;99.03;99018.38;5142135;27;20038;-81